Time,TemperatureF,DewpointF,PressureIn,WindDirection,WindDirectionDegrees,WindSpeedMPH,WindSpeedGustMPH,Humidity,HourlyPrecipIn,Conditions,Clouds,dailyrainin,SoftwareType,DateUTC
2013-11-13 00:22:00,43.0,27.0,-100.00,NNE,22,17.0,-999.0,54,0.00,,,-99.99,,2013-11-13 06:22:00,
2013-11-13 00:32:00,43.0,27.0,-100.00,NNE,22,17.0,-999.0,54,0.00,,,-99.99,,2013-11-13 06:32:00,
2013-11-13 00:42:00,43.0,27.0,-100.00,NNE,22,17.0,-999.0,54,0.00,,,-99.99,,2013-11-13 06:42:00,
2013-11-13 01:22:00,42.0,27.0,-100.00,NNE,21,16.0,-999.0,57,0.00,,,-99.99,,2013-11-13 07:22:00,
2013-11-13 01:32:00,42.0,27.0,-100.00,NNE,21,16.0,-999.0,57,0.00,,,-99.99,,2013-11-13 07:32:00,
2013-11-13 01:42:00,42.0,27.0,-100.00,NNE,21,16.0,-999.0,57,0.00,,,-99.99,,2013-11-13 07:42:00,
2013-11-13 02:22:00,40.0,25.0,-100.00,NNE,21,18.0,-999.0,55,0.00,,,-99.99,,2013-11-13 08:22:00,
2013-11-13 02:32:00,40.0,25.0,-100.00,NNE,21,18.0,-999.0,55,0.00,,,-99.99,,2013-11-13 08:32:00,
2013-11-13 02:42:00,40.0,25.0,-100.00,NNE,21,18.0,-999.0,55,0.00,,,-99.99,,2013-11-13 08:42:00,
2013-11-13 03:21:00,38.0,25.0,-100.00,NNE,19,15.0,-999.0,58,0.00,,,-99.99,,2013-11-13 09:21:00,
2013-11-13 03:33:00,38.0,25.0,-100.00,NNE,19,15.0,-999.0,58,0.00,,,-99.99,,2013-11-13 09:33:00,
2013-11-13 03:43:00,38.0,25.0,-100.00,NNE,19,15.0,-999.0,58,0.00,,,-99.99,,2013-11-13 09:43:00,
2013-11-13 04:23:00,37.0,24.0,-100.00,NNE,21,16.0,-999.0,58,0.00,,,-99.99,,2013-11-13 10:23:00,
2013-11-13 04:33:00,37.0,24.0,-100.00,NNE,21,16.0,-999.0,58,0.00,,,-99.99,,2013-11-13 10:33:00,
2013-11-13 04:42:00,37.0,24.0,-100.00,NNE,21,16.0,-999.0,58,0.00,,,-99.99,,2013-11-13 10:42:00,
2013-11-13 05:22:00,36.0,24.0,-100.00,NNE,24,14.0,-999.0,60,0.00,,,-99.99,,2013-11-13 11:22:00,
2013-11-13 05:33:00,36.0,24.0,-100.00,NNE,24,14.0,-999.0,60,0.00,,,-99.99,,2013-11-13 11:33:00,
2013-11-13 05:42:00,36.0,24.0,-100.00,NNE,24,14.0,-999.0,60,0.00,,,-99.99,,2013-11-13 11:42:00,
2013-11-13 06:22:00,35.0,23.0,-100.00,NNE,21,16.0,-999.0,61,0.00,,,-99.99,,2013-11-13 12:22:00,
2013-11-13 06:32:00,35.0,23.0,-100.00,NNE,21,16.0,-999.0,61,0.00,,,-99.99,,2013-11-13 12:32:00,
2013-11-13 06:42:00,35.0,23.0,-100.00,NNE,21,16.0,-999.0,61,0.00,,,-99.99,,2013-11-13 12:42:00,
2013-11-13 07:22:00,35.0,24.0,-100.00,NNE,24,15.0,-999.0,64,0.00,,,-99.99,,2013-11-13 13:22:00,
2013-11-13 07:32:00,35.0,24.0,-100.00,NNE,24,15.0,-999.0,64,0.00,,,-99.99,,2013-11-13 13:32:00,
2013-11-13 07:42:00,35.0,24.0,-100.00,NNE,24,15.0,-999.0,64,0.00,,,-99.99,,2013-11-13 13:42:00,
2013-11-13 08:22:00,36.0,24.0,-100.00,NNE,30,15.0,-999.0,61,0.00,,,-99.99,,2013-11-13 14:22:00,
2013-11-13 08:32:00,36.0,24.0,-100.00,NNE,30,15.0,-999.0,61,0.00,,,-99.99,,2013-11-13 14:32:00,
2013-11-13 08:42:00,36.0,24.0,-100.00,NNE,30,15.0,-999.0,61,0.00,,,-99.99,,2013-11-13 14:42:00,
2013-11-13 09:22:00,39.0,23.0,-100.00,NE,34,16.0,-999.0,54,0.00,,,-99.99,,2013-11-13 15:22:00,
2013-11-13 09:33:00,39.0,23.0,-100.00,NE,34,16.0,-999.0,54,0.00,,,-99.99,,2013-11-13 15:33:00,
2013-11-13 09:43:00,39.0,23.0,-100.00,NE,34,16.0,-999.0,54,0.00,,,-99.99,,2013-11-13 15:43:00,
2013-11-13 10:23:00,42.0,23.0,-100.00,NNE,28,16.0,-999.0,47,0.00,,,-99.99,,2013-11-13 16:23:00,
2013-11-13 10:32:00,42.0,23.0,-100.00,NNE,28,16.0,-999.0,47,0.00,,,-99.99,,2013-11-13 16:32:00,
2013-11-13 10:43:00,42.0,23.0,-100.00,NNE,28,16.0,-999.0,47,0.00,,,-99.99,,2013-11-13 16:43:00,
2013-11-13 11:23:00,46.0,24.0,-100.00,NNE,29,15.0,-999.0,42,0.00,,,-99.99,,2013-11-13 17:23:00,
2013-11-13 11:33:00,46.0,24.0,-100.00,NNE,29,15.0,-999.0,42,0.00,,,-99.99,,2013-11-13 17:33:00,
2013-11-13 11:42:00,46.0,24.0,-100.00,NNE,29,15.0,-999.0,42,0.00,,,-99.99,,2013-11-13 17:42:00,
2013-11-13 12:23:00,49.0,21.0,-100.00,NNE,29,15.0,-999.0,34,0.00,,,-99.99,,2013-11-13 18:23:00,
2013-11-13 12:32:00,49.0,21.0,-100.00,NNE,29,15.0,-999.0,34,0.00,,,-99.99,,2013-11-13 18:32:00,
2013-11-13 12:42:00,49.0,21.0,-100.00,NNE,29,15.0,-999.0,34,0.00,,,-99.99,,2013-11-13 18:42:00,
2013-11-13 13:21:00,51.0,21.0,-100.00,NNE,20,16.0,-999.0,30,0.00,,,-99.99,,2013-11-13 19:21:00,
2013-11-13 13:32:00,51.0,21.0,-100.00,NNE,20,16.0,-999.0,30,0.00,,,-99.99,,2013-11-13 19:32:00,
2013-11-13 13:42:00,51.0,21.0,-100.00,NNE,20,16.0,-999.0,30,0.00,,,-99.99,,2013-11-13 19:42:00,
2013-11-13 14:22:00,53.0,22.0,-100.00,NNE,28,15.0,-999.0,30,0.00,,,-99.99,,2013-11-13 20:22:00,
2013-11-13 14:32:00,53.0,22.0,-100.00,NNE,28,15.0,-999.0,30,0.00,,,-99.99,,2013-11-13 20:32:00,
2013-11-13 14:42:00,53.0,22.0,-100.00,NNE,28,15.0,-999.0,30,0.00,,,-99.99,,2013-11-13 20:42:00,
2013-11-13 15:22:00,53.0,24.0,-100.00,NE,44,15.0,-999.0,32,0.00,,,-99.99,,2013-11-13 21:22:00,
2013-11-13 15:33:00,53.0,24.0,-100.00,NE,44,15.0,-999.0,32,0.00,,,-99.99,,2013-11-13 21:33:00,
2013-11-13 15:43:00,53.0,24.0,-100.00,NE,44,15.0,-999.0,32,0.00,,,-99.99,,2013-11-13 21:43:00,
2013-11-13 16:23:00,53.0,24.0,-100.00,NNE,20,14.0,-999.0,32,0.00,,,-99.99,,2013-11-13 22:23:00,
2013-11-13 16:33:00,53.0,24.0,-100.00,NNE,20,14.0,-999.0,32,0.00,,,-99.99,,2013-11-13 22:33:00,
2013-11-13 16:42:00,53.0,24.0,-100.00,NNE,20,14.0,-999.0,32,0.00,,,-99.99,,2013-11-13 22:42:00,
2013-11-13 17:22:00,51.0,27.0,-100.00,NNE,30,9.0,-999.0,39,0.00,,,-99.99,,2013-11-13 23:22:00,
2013-11-13 17:32:00,51.0,27.0,-100.00,NNE,30,9.0,-999.0,39,0.00,,,-99.99,,2013-11-13 23:32:00,
2013-11-13 17:43:00,51.0,27.0,-100.00,NNE,30,9.0,-999.0,39,0.00,,,-99.99,,2013-11-13 23:43:00,
2013-11-13 18:22:00,47.0,32.0,-100.00,NNE,18,5.0,-999.0,56,0.00,,,-99.99,,2013-11-14 00:22:00,
2013-11-13 18:32:00,47.0,32.0,-100.00,NNE,18,5.0,-999.0,56,0.00,,,-99.99,,2013-11-14 00:32:00,
2013-11-13 18:42:00,47.0,32.0,-100.00,NNE,18,5.0,-999.0,56,0.00,,,-99.99,,2013-11-14 00:42:00,
2013-11-13 19:22:00,45.0,32.0,-100.00,NNE,16,6.0,-999.0,60,0.00,,,-99.99,,2013-11-14 01:22:00,
2013-11-13 19:32:00,45.0,32.0,-100.00,NNE,16,6.0,-999.0,60,0.00,,,-99.99,,2013-11-14 01:32:00,
2013-11-13 19:42:00,45.0,32.0,-100.00,NNE,16,6.0,-999.0,60,0.00,,,-99.99,,2013-11-14 01:42:00,
2013-11-13 20:22:00,43.0,33.0,-100.00,NNE,16,5.0,-999.0,67,0.00,,,-99.99,,2013-11-14 02:22:00,
2013-11-13 20:32:00,43.0,33.0,-100.00,NNE,16,5.0,-999.0,67,0.00,,,-99.99,,2013-11-14 02:32:00,
2013-11-13 20:42:00,43.0,33.0,-100.00,NNE,16,5.0,-999.0,67,0.00,,,-99.99,,2013-11-14 02:42:00,
2013-11-13 21:21:00,42.0,32.0,-100.00,NNE,17,6.0,-999.0,68,0.00,,,-99.99,,2013-11-14 03:21:00,
2013-11-13 21:34:00,42.0,32.0,-100.00,NNE,17,6.0,-999.0,68,0.00,,,-99.99,,2013-11-14 03:34:00,
2013-11-13 21:44:00,42.0,32.0,-100.00,NNE,17,6.0,-999.0,68,0.00,,,-99.99,,2013-11-14 03:44:00,
2013-11-13 22:24:00,40.0,33.0,-100.00,NNE,17,4.0,-999.0,74,0.00,,,-99.99,,2013-11-14 04:24:00,
2013-11-13 22:34:00,40.0,33.0,-100.00,NNE,17,4.0,-999.0,74,0.00,,,-99.99,,2013-11-14 04:34:00,
2013-11-13 22:43:00,40.0,33.0,-100.00,NNE,17,4.0,-999.0,74,0.00,,,-99.99,,2013-11-14 04:43:00,
2013-11-13 23:23:00,39.0,32.0,-100.00,NNE,14,5.0,-999.0,75,0.00,,,-99.99,,2013-11-14 05:23:00,
2013-11-13 23:34:00,39.0,32.0,-100.00,NNE,14,5.0,-999.0,75,0.00,,,-99.99,,2013-11-14 05:34:00,
2013-11-13 23:44:00,39.0,32.0,-100.00,NNE,14,5.0,-999.0,75,0.00,,,-99.99,,2013-11-14 05:44:00,